createdAt,value
2023-04-14T00:00:12.340Z,4.05
2023-04-14T00:01:15.730Z,3.93
2023-04-14T00:02:17.702Z,4.09
2023-04-14T00:03:20.242Z,3.74
2023-04-14T00:04:23.868Z,4.08
2023-04-14T00:05:32.183Z,3.86
2023-04-14T00:06:35.018Z,4.27
2023-04-14T00:07:36.958Z,4.28
2023-04-14T00:08:39.036Z,3.94
2023-04-14T00:09:40.891Z,4.20
2023-04-14T00:10:43.085Z,4.99
2023-04-14T00:11:45.052Z,4.35
2023-04-14T00:12:46.910Z,4.73
2023-04-14T00:13:48.776Z,4.22
2023-04-14T00:14:50.634Z,4.48
2023-04-14T00:15:52.833Z,4.16
2023-04-14T00:16:55.142Z,4.28
2023-04-14T00:17:57.148Z,4.70
2023-04-14T00:18:59.382Z,4.78
2023-04-14T00:20:01.937Z,4.54
2023-04-14T00:21:06.161Z,5.15
2023-04-14T00:22:08.065Z,4.91
2023-04-14T00:23:10.102Z,5.09
2023-04-14T00:24:12.018Z,4.83
2023-04-14T00:25:14.039Z,5.31
2023-04-14T00:26:17.019Z,5.56
2023-04-14T00:27:19.115Z,4.89
2023-04-14T00:28:21.064Z,5.29
2023-04-14T00:29:23.060Z,5.24
2023-04-14T00:30:25.155Z,5.07
2023-04-14T00:31:27.187Z,5.08
2023-04-14T00:32:29.213Z,5.90
2023-04-14T00:33:31.406Z,5.83
2023-04-14T00:34:35.125Z,6.30
2023-04-14T00:35:37.417Z,5.83
2023-04-14T00:36:39.400Z,5.33
2023-04-14T00:37:43.104Z,5.29
2023-04-14T00:38:45.157Z,5.17
2023-04-14T00:39:47.074Z,5.14
2023-04-14T00:40:49.146Z,4.81
2023-04-14T00:41:51.136Z,5.73
2023-04-14T00:42:53.207Z,5.54
2023-04-14T00:43:55.277Z,5.10
2023-04-14T00:44:57.160Z,5.15
2023-04-14T00:45:59.267Z,5.50
2023-04-14T00:47:03.865Z,5.19
2023-04-14T00:48:06.413Z,5.22
2023-04-14T00:49:09.003Z,5.61
2023-04-14T00:50:13.339Z,5.46
2023-04-14T00:51:16.009Z,5.74
2023-04-14T00:52:21.379Z,5.37
2023-04-14T00:53:23.398Z,5.82
2023-04-14T00:54:26.956Z,5.46
2023-04-14T00:55:29.796Z,6.01
2023-04-14T00:56:32.772Z,5.58
2023-04-14T00:57:37.529Z,5.22
2023-04-14T00:58:42.448Z,5.81
2023-04-14T00:59:44.389Z,6.03
2023-04-14T01:00:47.047Z,5.75
2023-04-14T01:01:48.977Z,5.69
2023-04-14T01:02:51.234Z,5.31
2023-04-14T01:03:54.260Z,6.50
2023-04-14T01:04:56.443Z,6.02
2023-04-14T01:05:58.738Z,6.19
2023-04-14T01:07:00.874Z,5.89
2023-04-14T01:08:04.425Z,5.73
2023-04-14T01:09:07.660Z,5.85
2023-04-14T01:10:10.781Z,6.14
2023-04-14T01:11:31.589Z,5.85
2023-04-14T01:13:03.187Z,5.82
2023-04-14T01:14:35.253Z,5.87
2023-04-14T01:15:49.186Z,6.32
2023-04-14T01:16:55.024Z,6.38
2023-04-14T01:18:03.552Z,6.26
2023-04-14T01:19:25.695Z,5.40
2023-04-14T01:20:34.884Z,5.37
2023-04-14T01:21:39.986Z,5.31
2023-04-14T01:22:55.152Z,5.89
2023-04-14T01:24:18.039Z,5.78
2023-04-14T01:25:33.054Z,5.63
2023-04-14T01:26:35.398Z,5.38
2023-04-14T01:27:56.503Z,6.21
2023-04-14T01:29:02.421Z,5.77
2023-04-14T01:32:03.935Z,5.73
2023-04-14T01:33:10.001Z,5.83
2023-04-14T01:34:22.737Z,5.97
2023-04-14T01:35:43.610Z,5.75
2023-04-14T01:36:49.487Z,5.64
2023-04-14T01:37:58.338Z,6.23
2023-04-14T01:39:04.057Z,5.84
2023-04-14T01:40:12.779Z,6.22
2023-04-14T01:41:17.769Z,5.63
2023-04-14T01:42:23.779Z,5.30
2023-04-14T01:43:30.075Z,5.83
2023-04-14T01:44:34.424Z,5.64
2023-04-14T01:45:40.921Z,5.88
2023-04-14T01:46:44.470Z,5.89
2023-04-14T01:47:47.451Z,6.27
2023-04-14T01:48:50.511Z,6.73
2023-04-14T01:49:53.619Z,6.40
2023-04-14T01:50:57.916Z,5.47
2023-04-14T01:52:03.390Z,6.86
2023-04-14T01:53:08.357Z,5.90
2023-04-14T01:54:12.589Z,5.91
2023-04-14T01:55:18.277Z,6.66
2023-04-14T01:56:21.805Z,6.01
2023-04-14T01:57:28.517Z,6.62
2023-04-14T01:58:31.766Z,6.66
2023-04-14T01:59:35.355Z,6.79
2023-04-14T02:00:40.319Z,6.18
2023-04-14T02:01:45.523Z,6.94
2023-04-14T02:02:50.246Z,6.57
2023-04-14T02:03:53.136Z,6.64
2023-04-14T02:04:56.343Z,6.74
2023-04-14T02:06:00.412Z,6.79
2023-04-14T02:07:05.136Z,7.09
2023-04-14T02:08:10.012Z,6.86
2023-04-14T02:09:13.211Z,6.69
2023-04-14T02:10:19.533Z,7.53
2023-04-14T02:11:23.219Z,6.89
2023-04-14T02:12:26.935Z,7.54
2023-04-14T02:13:31.070Z,7.32
2023-04-14T02:14:35.176Z,7.18
2023-04-14T02:15:37.089Z,7.25
2023-04-14T02:16:40.246Z,8.13
2023-04-14T02:17:46.914Z,6.73
2023-04-14T02:18:49.918Z,7.26
2023-04-14T02:19:54.329Z,7.67
2023-04-14T02:21:00.470Z,8.26
2023-04-14T02:22:03.764Z,8.16
2023-04-14T02:23:05.773Z,6.85
2023-04-14T02:24:09.137Z,7.37
2023-04-14T02:25:12.242Z,7.53
2023-04-14T02:26:18.467Z,7.30
2023-04-14T02:27:41.067Z,7.54
2023-04-14T02:31:24.656Z,7.24
2023-04-14T02:32:30.548Z,7.09
2023-04-14T02:33:35.264Z,8.04
2023-04-14T02:35:13.526Z,8.61
2023-04-14T02:36:19.394Z,7.79
2023-04-14T02:37:25.251Z,7.83
2023-04-14T02:38:37.307Z,7.51
2023-04-14T02:39:45.958Z,8.46
2023-04-14T02:40:49.603Z,7.87
2023-04-14T02:41:55.244Z,7.91
2023-04-14T02:43:00.678Z,7.68
2023-04-14T02:44:12.133Z,8.01
2023-04-14T02:45:21.434Z,8.06
2023-04-14T02:46:27.020Z,8.02
2023-04-14T02:47:33.240Z,7.93
2023-04-14T02:48:37.435Z,8.04
2023-04-14T02:49:45.220Z,8.02
2023-04-14T02:50:51.492Z,9.04
2023-04-14T02:51:55.582Z,8.22
2023-04-14T02:53:00.279Z,8.56
2023-04-14T02:54:04.582Z,8.71
2023-04-14T02:55:09.836Z,8.19
2023-04-14T02:56:14.382Z,8.34
2023-04-14T02:57:17.818Z,9.01
2023-04-14T02:58:20.693Z,9.17
2023-04-14T02:59:25.168Z,8.46
2023-04-14T03:00:29.056Z,8.82
2023-04-14T03:01:32.126Z,8.51
2023-04-14T03:02:35.771Z,8.95
2023-04-14T03:03:38.480Z,9.43
2023-04-14T03:04:41.722Z,9.35
2023-04-14T03:05:46.526Z,9.37
2023-04-14T03:06:50.719Z,8.32
2023-04-14T03:07:54.900Z,8.83
2023-04-14T03:08:59.664Z,8.85
2023-04-14T03:10:02.722Z,9.66
2023-04-14T03:11:06.465Z,10.08
2023-04-14T03:12:12.650Z,9.61
2023-04-14T03:13:20.525Z,9.26
2023-04-14T03:14:25.513Z,9.67
2023-04-14T03:15:29.892Z,9.56
2023-04-14T03:16:34.133Z,9.38
2023-04-14T03:17:37.398Z,9.98
2023-04-14T03:18:41.796Z,9.28
2023-04-14T03:19:45.929Z,10.21
2023-04-14T03:20:48.430Z,9.77
2023-04-14T03:21:51.972Z,9.78
2023-04-14T03:22:54.276Z,10.38
2023-04-14T03:23:58.155Z,9.93
2023-04-14T03:25:00.164Z,9.86
2023-04-14T03:26:04.487Z,9.31
2023-04-14T03:27:10.671Z,9.64
2023-04-14T03:28:14.788Z,9.98
2023-04-14T03:29:19.773Z,10.02
2023-04-14T03:30:24.946Z,8.95
2023-04-14T03:31:33.005Z,9.56
2023-04-14T03:32:38.829Z,9.99
2023-04-14T03:33:43.844Z,10.96
2023-04-14T03:34:49.811Z,10.03
2023-04-14T03:35:53.644Z,9.42
2023-04-14T03:36:57.780Z,10.80
2023-04-14T03:38:03.839Z,10.55
2023-04-14T03:39:08.325Z,10.17
2023-04-14T03:40:14.764Z,9.95
2023-04-14T03:41:19.318Z,10.33
2023-04-14T03:42:23.664Z,10.31
2023-04-14T03:43:27.646Z,10.14
2023-04-14T03:44:32.270Z,9.81
2023-04-14T03:45:36.478Z,9.87
2023-04-14T03:46:39.150Z,10.49
2023-04-14T03:47:41.633Z,10.36
2023-04-14T03:48:45.739Z,11.03
2023-04-14T03:49:49.956Z,9.98
2023-04-14T03:50:54.289Z,10.96
2023-04-14T03:51:59.986Z,10.51
2023-04-14T03:53:04.072Z,10.38
2023-04-14T03:54:07.006Z,9.96
2023-04-14T03:55:11.452Z,10.15
2023-04-14T03:56:17.048Z,9.75
2023-04-14T03:57:20.049Z,9.91
2023-04-14T03:58:23.044Z,10.28
2023-04-14T03:59:27.423Z,10.46
2023-04-14T04:00:30.296Z,10.54
2023-04-14T04:01:32.995Z,10.01
2023-04-14T04:02:37.208Z,9.61
2023-04-14T04:03:41.435Z,10.55
2023-04-14T04:04:44.188Z,10.38
2023-04-14T04:05:47.381Z,10.60
2023-04-14T04:06:50.735Z,10.13
2023-04-14T04:07:55.085Z,10.32
2023-04-14T04:09:00.140Z,10.08
2023-04-14T04:10:06.084Z,10.61
2023-04-14T04:11:09.190Z,10.87
2023-04-14T04:12:13.534Z,10.42
2023-04-14T04:13:20.050Z,10.03
2023-04-14T04:14:24.272Z,10.38
2023-04-14T04:15:28.517Z,10.69
2023-04-14T04:16:33.931Z,10.43
2023-04-14T04:17:37.930Z,10.84
2023-04-14T04:18:41.909Z,10.65
2023-04-14T04:19:46.055Z,10.99
2023-04-14T04:20:49.316Z,10.04
2023-04-14T04:21:54.551Z,10.68
2023-04-14T04:22:59.234Z,10.84
2023-04-14T04:24:04.023Z,10.09
2023-04-14T04:25:09.106Z,11.15
2023-04-14T04:26:12.974Z,10.62
2023-04-14T04:27:27.228Z,10.36
2023-04-14T04:28:21.948Z,9.82
2023-04-14T04:29:25.561Z,10.64
2023-04-14T04:30:31.942Z,11.04
2023-04-14T04:31:35.976Z,10.52
2023-04-14T04:32:41.298Z,10.44
2023-04-14T04:33:44.915Z,10.91
2023-04-14T04:34:49.744Z,10.91
2023-04-14T04:35:54.701Z,10.88
2023-04-14T04:36:59.692Z,10.77
2023-04-14T04:38:01.644Z,10.32
2023-04-14T04:39:03.772Z,10.73
2023-04-14T04:40:07.756Z,10.61
2023-04-14T04:42:40.562Z,11.40
2023-04-14T04:43:42.584Z,10.76
2023-04-14T04:44:44.486Z,11.27
2023-04-14T04:46:02.781Z,11.42
2023-04-14T04:47:05.472Z,10.73
2023-04-14T04:48:07.520Z,10.45
2023-04-14T04:49:09.639Z,10.45
2023-04-14T04:50:11.743Z,9.69
2023-04-14T04:51:14.323Z,10.49
2023-04-14T04:52:16.261Z,10.35
2023-04-14T04:53:18.537Z,10.65
2023-04-14T04:54:20.537Z,10.01
2023-04-14T04:55:22.608Z,10.90
2023-04-14T04:56:24.858Z,9.41
2023-04-14T04:57:27.619Z,10.77
2023-04-14T04:58:29.484Z,11.01
2023-04-14T04:59:31.678Z,10.77
2023-04-14T05:00:33.750Z,9.82
2023-04-14T05:01:35.763Z,9.92
2023-04-14T05:02:37.805Z,11.33
2023-04-14T05:03:40.354Z,9.65
2023-04-14T05:04:42.514Z,11.13
2023-04-14T05:05:44.568Z,11.60
2023-04-14T05:06:46.518Z,10.36
2023-04-14T05:07:48.422Z,10.47
2023-04-14T05:08:51.644Z,12.13
2023-04-14T05:09:53.644Z,11.66
2023-04-14T05:10:55.625Z,11.55
2023-04-14T05:11:57.648Z,11.19
2023-04-14T05:12:59.519Z,11.89
2023-04-14T05:14:02.650Z,10.95
2023-04-14T05:15:05.842Z,10.88
2023-04-14T05:16:10.254Z,11.78
2023-04-14T05:17:12.288Z,11.92
2023-04-14T05:18:14.276Z,10.76
2023-04-14T05:19:16.161Z,11.41
2023-04-14T05:20:20.132Z,11.34
2023-04-14T05:21:23.103Z,10.56
2023-04-14T05:22:25.041Z,11.07
2023-04-14T05:23:26.944Z,12.03
2023-04-14T05:24:29.019Z,11.23
2023-04-14T05:25:31.816Z,10.30
2023-04-14T05:26:57.528Z,9.93
2023-04-14T05:27:38.804Z,11.88
2023-04-14T05:28:41.869Z,11.12
2023-04-14T05:29:43.865Z,10.74
2023-04-14T05:30:46.041Z,11.68
2023-04-14T05:31:48.534Z,10.66
2023-04-14T05:32:50.616Z,11.08
2023-04-14T05:33:52.728Z,10.71
2023-04-14T05:34:56.054Z,11.65
2023-04-14T05:35:58.081Z,10.81
2023-04-14T05:37:01.472Z,11.43
2023-04-14T05:38:03.371Z,10.39
2023-04-14T05:39:06.512Z,11.66
2023-04-14T05:40:10.437Z,10.67
2023-04-14T05:41:12.475Z,11.46
2023-04-14T05:42:14.391Z,10.54
2023-04-14T05:43:16.326Z,11.13
2023-04-14T05:44:18.221Z,11.45
2023-04-14T05:45:20.076Z,10.95
2023-04-14T05:46:22.162Z,12.32
2023-04-14T05:47:26.517Z,11.42
2023-04-14T05:48:28.514Z,12.28
2023-04-14T05:49:30.420Z,11.88
2023-04-14T05:50:34.498Z,10.61
2023-04-14T05:51:36.440Z,11.48
2023-04-14T05:52:38.460Z,10.15
2023-04-14T05:53:40.815Z,11.29
2023-04-14T05:54:43.314Z,11.77
2023-04-14T05:55:45.522Z,10.37
2023-04-14T05:56:47.727Z,10.81
2023-04-14T05:57:49.746Z,10.63
2023-04-14T05:58:51.713Z,11.52
2023-04-14T05:59:53.639Z,10.34
2023-04-14T06:00:55.724Z,10.43
2023-04-14T06:01:58.682Z,11.13
2023-04-14T06:03:01.780Z,12.13
2023-04-14T06:04:04.675Z,10.88
2023-04-14T06:05:08.499Z,11.16
2023-04-14T06:06:11.575Z,10.24
2023-04-14T06:07:14.496Z,10.70
2023-04-14T06:08:17.987Z,10.28
2023-04-14T06:09:19.978Z,11.01
2023-04-14T06:10:22.160Z,11.53
2023-04-14T06:11:24.163Z,11.26
2023-04-14T06:12:26.116Z,11.25
2023-04-14T06:13:31.106Z,11.75
2023-04-14T06:14:32.125Z,11.45
2023-04-14T06:15:34.640Z,11.41
2023-04-14T06:16:36.913Z,10.90
2023-04-14T06:17:39.046Z,11.06
2023-04-14T06:18:41.168Z,10.97
2023-04-14T06:19:43.150Z,12.87
2023-04-14T06:20:45.538Z,11.03
2023-04-14T06:21:47.442Z,11.37
2023-04-14T06:22:49.409Z,10.14
2023-04-14T06:23:51.464Z,11.35
2023-04-14T06:24:53.509Z,11.55
2023-04-14T06:25:55.492Z,11.54
2023-04-14T06:26:57.750Z,10.79
2023-04-14T06:27:59.889Z,11.03
2023-04-14T06:29:02.135Z,11.05
2023-04-14T06:30:06.333Z,11.47
2023-04-14T06:31:08.565Z,11.31
2023-04-14T06:32:11.111Z,11.03
2023-04-14T06:33:13.314Z,11.24
2023-04-14T06:34:16.114Z,11.22
2023-04-14T06:35:30.092Z,10.28
2023-04-14T06:36:22.048Z,10.79
2023-04-14T06:37:24.068Z,10.85
2023-04-14T06:38:29.346Z,11.84
2023-04-14T06:39:31.938Z,10.31
2023-04-14T06:40:33.996Z,11.37
2023-04-14T06:41:35.982Z,10.95
2023-04-14T06:42:38.080Z,10.40
2023-04-14T06:43:40.577Z,11.44
2023-04-14T06:44:42.479Z,10.78
2023-04-14T06:45:44.506Z,10.25
2023-04-14T06:46:46.573Z,11.15
2023-04-14T06:47:48.636Z,11.84
2023-04-14T06:48:50.583Z,11.66
2023-04-14T06:49:52.444Z,11.86
2023-04-14T06:50:55.354Z,12.21
2023-04-14T06:51:58.531Z,12.24
2023-04-14T06:53:00.632Z,11.95
2023-04-14T06:54:02.740Z,10.85
2023-04-14T06:55:05.553Z,11.51
2023-04-14T06:56:07.968Z,11.14
2023-04-14T06:57:10.184Z,12.07
2023-04-14T06:58:12.107Z,11.61
2023-04-14T06:59:14.353Z,11.51
2023-04-14T07:00:17.758Z,11.78
2023-04-14T07:01:19.819Z,11.08
2023-04-14T07:02:21.982Z,11.66
2023-04-14T07:03:26.299Z,12.01
2023-04-14T07:04:28.337Z,12.53
2023-04-14T07:05:30.492Z,13.27
2023-04-14T07:06:32.803Z,10.39
2023-04-14T07:07:37.137Z,11.51
2023-04-14T07:08:40.091Z,12.08
2023-04-14T07:09:42.314Z,11.31
2023-04-14T07:10:44.805Z,11.44
2023-04-14T07:11:48.208Z,11.41
2023-04-14T07:12:50.470Z,11.33
2023-04-14T07:13:52.346Z,11.13
2023-04-14T07:14:54.231Z,11.65
2023-04-14T07:15:56.389Z,11.69
2023-04-14T07:16:58.546Z,11.71
2023-04-14T07:18:00.702Z,11.64
2023-04-14T07:19:02.674Z,11.39
2023-04-14T07:20:06.910Z,11.67
2023-04-14T07:21:08.915Z,11.19
2023-04-14T07:22:10.972Z,11.41
2023-04-14T07:23:12.838Z,11.54
2023-04-14T07:24:15.628Z,11.55
2023-04-14T07:25:18.314Z,12.28
2023-04-14T07:26:20.590Z,12.01
2023-04-14T07:27:22.812Z,11.92
2023-04-14T07:28:27.450Z,11.54
2023-04-14T07:29:29.422Z,12.46
2023-04-14T07:30:32.704Z,12.71
2023-04-14T07:31:34.833Z,11.77
2023-04-14T07:32:37.710Z,12.23
2023-04-14T07:33:40.277Z,12.00
2023-04-14T07:34:42.252Z,11.79
2023-04-14T07:36:56.174Z,11.66
2023-04-14T07:37:58.032Z,12.57
2023-04-14T07:39:00.431Z,11.21
2023-04-14T07:40:02.751Z,12.33
2023-04-14T07:41:06.574Z,13.18
2023-04-14T07:42:08.801Z,11.03
2023-04-14T07:43:11.216Z,11.03
2023-04-14T07:44:13.088Z,11.70
2023-04-14T07:45:15.256Z,10.46
2023-04-14T07:46:17.873Z,11.56
2023-04-14T07:47:19.939Z,10.57
2023-04-14T07:48:21.997Z,11.35
2023-04-14T07:49:23.986Z,11.56
2023-04-14T07:50:26.439Z,11.17
2023-04-14T07:51:28.952Z,11.85
2023-04-14T07:52:30.845Z,11.19
2023-04-14T07:53:33.630Z,11.69
2023-04-14T07:54:35.989Z,12.01
2023-04-14T07:55:38.004Z,11.51
2023-04-14T07:56:40.438Z,10.87
2023-04-14T07:57:42.794Z,11.41
2023-04-14T07:58:44.767Z,10.35
2023-04-14T07:59:46.880Z,11.09
2023-04-14T08:00:49.198Z,10.07
2023-04-14T08:01:51.250Z,10.15
2023-04-14T08:02:54.357Z,10.57
2023-04-14T08:03:56.645Z,9.68
2023-04-14T08:04:58.798Z,9.86
2023-04-14T08:06:00.864Z,10.28
2023-04-14T08:07:02.893Z,9.79
2023-04-14T08:08:05.187Z,10.37
2023-04-14T08:09:07.109Z,10.03
2023-04-14T08:10:09.280Z,10.46
2023-04-14T08:11:11.353Z,10.25
2023-04-14T08:12:13.229Z,11.22
2023-04-14T08:13:15.127Z,10.96
2023-04-14T08:14:16.989Z,10.05
2023-04-14T08:15:20.290Z,10.53
2023-04-14T08:16:22.418Z,10.11
2023-04-14T08:17:24.798Z,9.45
2023-04-14T08:18:27.878Z,9.74
2023-04-14T08:19:29.749Z,10.22
2023-04-14T08:20:34.163Z,10.61
2023-04-14T08:21:36.182Z,10.28
2023-04-14T08:22:38.855Z,10.33
2023-04-14T08:23:40.722Z,10.47
2023-04-14T08:24:42.609Z,10.38
2023-04-14T08:25:44.561Z,10.15
2023-04-14T08:26:47.054Z,10.29
2023-04-14T08:27:49.073Z,9.45
2023-04-14T08:28:51.026Z,10.25
2023-04-14T08:29:53.274Z,9.83
2023-04-14T08:30:55.884Z,10.45
2023-04-14T08:31:57.822Z,9.69
2023-04-14T08:33:00.203Z,9.97
2023-04-14T08:34:02.622Z,10.52
2023-04-14T08:35:38.891Z,10.03
2023-04-14T08:36:10.353Z,10.18
2023-04-14T08:37:12.271Z,9.27
2023-04-14T08:38:14.872Z,9.97
2023-04-14T08:39:16.764Z,9.99
2023-04-14T08:40:21.286Z,9.84
2023-04-14T08:41:24.384Z,9.39
2023-04-14T08:42:26.596Z,9.12
2023-04-14T08:43:28.873Z,9.27
2023-04-14T08:44:31.031Z,10.05
2023-04-14T08:45:33.971Z,9.19
2023-04-14T08:46:36.839Z,9.33
2023-04-14T08:47:39.813Z,9.48
2023-04-14T08:48:45.583Z,10.22
2023-04-14T08:49:54.265Z,9.41
2023-04-14T08:51:11.870Z,9.43
2023-04-14T08:52:16.375Z,9.11
2023-04-14T08:53:21.646Z,8.83
2023-04-14T08:54:24.991Z,9.45
2023-04-14T08:55:28.723Z,9.89
2023-04-14T08:56:35.666Z,8.48
2023-04-14T08:57:38.222Z,9.51
2023-04-14T08:58:40.441Z,9.31
2023-04-14T09:00:58.801Z,9.06
2023-04-14T09:02:03.741Z,9.19
2023-04-14T09:03:07.106Z,9.56
2023-04-14T09:04:10.306Z,9.53
2023-04-14T09:05:13.071Z,9.49
2023-04-14T09:06:16.324Z,9.21
2023-04-14T09:07:19.877Z,8.91
2023-04-14T09:08:21.876Z,9.73
2023-04-14T09:09:24.642Z,8.99
2023-04-14T09:10:27.680Z,9.84
2023-04-14T09:11:29.825Z,10.53
2023-04-14T09:12:33.122Z,9.87
2023-04-14T09:13:36.061Z,9.55
2023-04-14T09:14:40.196Z,9.69
2023-04-14T09:15:42.937Z,8.98
2023-04-14T09:16:45.270Z,9.63
2023-04-14T09:17:47.293Z,10.09
2023-04-14T09:18:51.721Z,9.24
2023-04-14T09:20:35.433Z,10.05
2023-04-14T09:21:29.771Z,9.86
2023-04-14T09:22:02.743Z,9.34
2023-04-14T09:23:06.881Z,9.63
2023-04-14T09:24:12.008Z,9.63
2023-04-14T09:25:18.771Z,10.28
2023-04-14T09:26:20.790Z,10.09
2023-04-14T09:27:22.641Z,9.41
2023-04-14T09:28:24.514Z,9.35
2023-04-14T09:29:27.274Z,10.10
2023-04-14T09:30:31.357Z,9.71
2023-04-14T09:31:33.740Z,10.88
2023-04-14T09:32:36.859Z,9.63
2023-04-14T09:33:41.683Z,10.96
2023-04-14T09:34:50.740Z,9.55
2023-04-14T09:35:52.750Z,8.70
2023-04-14T09:37:04.808Z,8.88
2023-04-14T09:38:06.860Z,9.20
2023-04-14T09:39:16.391Z,9.24
2023-04-14T09:40:30.344Z,8.54
2023-04-14T09:41:32.574Z,8.79
2023-04-14T09:42:41.090Z,8.17
2023-04-14T09:43:43.718Z,7.60
2023-04-14T09:44:53.544Z,8.05
2023-04-14T09:45:58.695Z,8.26
2023-04-14T09:47:03.252Z,7.76
2023-04-14T09:48:06.980Z,8.52
2023-04-14T09:49:09.000Z,8.18
2023-04-14T09:50:12.149Z,7.65
2023-04-14T09:51:14.170Z,7.65
2023-04-14T09:52:16.080Z,8.05
2023-04-14T09:53:26.703Z,7.45
2023-04-14T09:54:28.660Z,7.88
2023-04-14T09:55:30.517Z,7.45
2023-04-14T09:56:32.689Z,7.51
2023-04-14T09:57:34.862Z,7.89
2023-04-14T09:58:42.443Z,7.76
2023-04-14T09:59:45.912Z,7.42
2023-04-14T10:00:50.229Z,7.95
2023-04-14T10:01:52.360Z,6.90
2023-04-14T10:02:56.580Z,7.50
2023-04-14T10:04:01.433Z,6.76
2023-04-14T10:05:06.026Z,7.34
2023-04-14T10:06:14.708Z,7.41
2023-04-14T10:07:18.498Z,7.13
2023-04-14T10:08:21.642Z,7.66
2023-04-14T10:09:25.305Z,7.37
2023-04-14T10:10:27.443Z,8.14
2023-04-14T10:11:31.407Z,7.41
2023-04-14T10:12:33.578Z,7.75
2023-04-14T10:13:35.549Z,7.52
2023-04-14T10:14:38.136Z,7.85
2023-04-14T10:15:41.279Z,7.89
2023-04-14T10:16:44.107Z,7.13
2023-04-14T10:17:46.777Z,7.05
2023-04-14T10:18:49.625Z,6.60
2023-04-14T10:19:51.721Z,7.36
2023-04-14T10:20:55.183Z,6.85
2023-04-14T10:21:57.088Z,6.65
2023-04-14T10:22:59.856Z,7.31
2023-04-14T10:24:02.621Z,7.12
2023-04-14T10:25:06.155Z,7.25
2023-04-14T10:26:10.551Z,6.69
2023-04-14T10:27:13.126Z,6.89
2023-04-14T10:28:16.312Z,7.43
2023-04-14T10:29:20.230Z,7.29
2023-04-14T10:30:22.578Z,7.04
2023-04-14T10:31:27.898Z,7.15
2023-04-14T10:32:34.157Z,7.19
2023-04-14T10:33:36.802Z,7.28
2023-04-14T10:34:44.300Z,7.39
2023-04-14T10:35:50.396Z,7.63
2023-04-14T10:36:52.590Z,7.11
2023-04-14T10:37:54.581Z,6.66
2023-04-14T10:39:01.717Z,6.33
2023-04-14T10:40:07.453Z,6.68
2023-04-14T10:41:11.374Z,6.56
2023-04-14T10:42:13.371Z,6.93
2023-04-14T10:43:15.354Z,6.98
2023-04-14T10:44:31.762Z,7.11
2023-04-14T10:45:33.960Z,6.20
2023-04-14T10:46:43.212Z,6.39
2023-04-14T10:47:46.062Z,7.01
2023-04-14T10:48:50.037Z,7.43
2023-04-14T10:49:55.491Z,6.88
2023-04-14T10:51:01.101Z,6.85
2023-04-14T10:52:15.866Z,6.69
2023-04-14T10:53:19.518Z,6.84
2023-04-14T10:54:21.519Z,7.51
2023-04-14T10:55:26.705Z,6.81
2023-04-14T10:56:29.907Z,6.95
2023-04-14T10:57:38.812Z,7.13
2023-04-14T10:58:43.459Z,7.47
2023-04-14T10:59:46.468Z,6.75
2023-04-14T11:00:48.512Z,7.73
2023-04-14T11:01:53.567Z,6.74
2023-04-14T11:03:04.155Z,7.59
2023-04-14T11:04:17.612Z,8.15
2023-04-14T11:05:20.764Z,6.87
2023-04-14T11:06:46.539Z,6.41
2023-04-14T11:07:50.963Z,7.31
2023-04-14T11:08:54.186Z,6.64
2023-04-14T11:10:18.330Z,6.85
2023-04-14T11:11:24.263Z,7.13
2023-04-14T11:12:28.241Z,8.00
2023-04-14T11:13:32.855Z,7.71
2023-04-14T11:14:35.192Z,8.18
2023-04-14T11:15:51.530Z,7.48
2023-04-14T11:17:04.509Z,7.29
2023-04-14T11:18:15.421Z,7.74
2023-04-14T11:19:17.540Z,7.38
2023-04-14T11:20:21.970Z,6.71
2023-04-14T11:21:24.085Z,6.90
2023-04-14T11:22:46.371Z,7.19
2023-04-14T11:23:48.592Z,7.66
2023-04-14T11:24:50.511Z,6.93
2023-04-14T11:25:52.987Z,7.29
2023-04-14T11:26:56.233Z,6.98
2023-04-14T11:28:02.756Z,7.12
2023-04-14T11:29:07.768Z,7.03
2023-04-14T11:30:18.894Z,7.38
2023-04-14T11:31:24.704Z,6.67
2023-04-14T11:32:26.884Z,6.60
2023-04-14T11:33:35.125Z,7.11
2023-04-14T11:34:37.041Z,7.89
2023-04-14T11:35:41.279Z,6.85
2023-04-14T11:36:43.365Z,6.82
2023-04-14T11:37:46.247Z,6.99
2023-04-14T11:38:52.086Z,6.76
2023-04-14T11:39:54.190Z,7.40
2023-04-14T11:40:56.830Z,6.69
2023-04-14T11:42:00.092Z,7.61
2023-04-14T11:43:02.128Z,7.06
2023-04-14T11:44:04.234Z,7.21
2023-04-14T11:45:07.127Z,7.16
2023-04-14T11:46:09.427Z,7.69
2023-04-14T11:47:11.398Z,7.19
2023-04-14T11:48:16.179Z,7.41
2023-04-14T11:49:18.439Z,7.81
2023-04-14T11:50:21.433Z,7.92
2023-04-14T11:51:32.865Z,7.67
2023-04-14T11:52:35.102Z,7.23
2023-04-14T11:53:37.088Z,7.43
2023-04-14T11:54:39.587Z,7.47
2023-04-14T11:56:54.475Z,7.79
2023-04-14T11:57:56.527Z,7.71
2023-04-14T11:59:01.213Z,6.77
2023-04-14T12:00:04.965Z,7.77
2023-04-14T12:01:08.448Z,7.06
2023-04-14T12:02:16.777Z,6.86
2023-04-14T12:03:20.086Z,7.26
2023-04-14T12:04:22.443Z,7.43
2023-04-14T12:05:25.023Z,7.31
2023-04-14T12:06:27.543Z,7.26
2023-04-14T12:07:29.498Z,7.82
2023-04-14T12:08:33.370Z,7.89
2023-04-14T12:09:39.298Z,7.59
2023-04-14T12:10:41.908Z,8.27
2023-04-14T12:11:55.297Z,7.47
2023-04-14T12:13:10.156Z,7.57
2023-04-14T12:14:12.628Z,7.99
2023-04-14T12:15:14.992Z,7.31
2023-04-14T12:16:18.158Z,7.64
2023-04-14T12:17:21.547Z,7.56
2023-04-14T12:18:24.072Z,6.82
2023-04-14T12:19:25.997Z,7.06
2023-04-14T12:20:29.360Z,7.30
2023-04-14T12:21:31.694Z,7.15
2023-04-14T12:22:33.646Z,7.45
2023-04-14T12:23:37.594Z,6.81
2023-04-14T12:24:43.054Z,6.88
2023-04-14T12:25:47.256Z,7.68
2023-04-14T12:26:49.341Z,7.45
2023-04-14T12:27:51.425Z,8.93
2023-04-14T12:28:56.958Z,7.13
2023-04-14T12:29:58.898Z,7.78
2023-04-14T12:31:02.968Z,7.05
2023-04-14T12:32:11.941Z,7.44
2023-04-14T12:33:13.965Z,6.85
2023-04-14T12:34:17.838Z,7.17
2023-04-14T12:35:23.154Z,7.00
2023-04-14T12:36:29.780Z,7.45
2023-04-14T12:37:29.085Z,7.10
2023-04-14T12:38:31.560Z,7.78
2023-04-14T12:39:51.333Z,7.09
2023-04-14T12:40:56.115Z,6.83
2023-04-14T12:41:58.188Z,7.49
2023-04-14T12:43:02.082Z,7.08
2023-04-14T12:44:13.798Z,7.08
2023-04-14T12:45:16.339Z,7.06
2023-04-14T12:46:23.376Z,6.74
2023-04-14T12:47:26.988Z,7.07
2023-04-14T12:48:40.312Z,6.34
2023-04-14T12:49:42.230Z,7.58
2023-04-14T12:50:45.029Z,7.09
2023-04-14T12:51:46.914Z,6.53
2023-04-14T12:52:48.878Z,7.07
2023-04-14T12:53:50.847Z,6.82
2023-04-14T12:54:54.092Z,7.09
2023-04-14T12:56:08.037Z,6.70
2023-04-14T12:57:10.029Z,7.03
2023-04-14T12:58:11.906Z,6.49
2023-04-14T12:59:13.774Z,6.48
2023-04-14T13:00:16.638Z,6.46
2023-04-14T13:01:20.217Z,6.25
2023-04-14T13:02:22.992Z,6.92
2023-04-14T13:03:27.470Z,6.37
2023-04-14T13:04:29.827Z,6.98
2023-04-14T13:05:31.927Z,6.57
2023-04-14T13:06:34.139Z,7.13
2023-04-14T13:07:36.960Z,7.63
2023-04-14T13:08:44.498Z,6.54
2023-04-14T13:09:46.620Z,7.08
2023-04-14T13:10:48.725Z,6.25
2023-04-14T13:11:50.672Z,7.16
2023-04-14T13:12:53.355Z,6.75
2023-04-14T13:13:55.638Z,6.53
2023-04-14T13:14:57.739Z,6.03
2023-04-14T13:16:21.862Z,6.04
2023-04-14T13:17:03.573Z,6.10
2023-04-14T13:18:05.639Z,6.39
2023-04-14T13:19:07.669Z,6.16
2023-04-14T13:20:11.309Z,6.16
2023-04-14T13:21:13.671Z,6.88
2023-04-14T13:22:15.915Z,6.28
2023-04-14T13:23:17.985Z,6.16
2023-04-14T13:24:19.860Z,6.36
2023-04-14T13:25:21.905Z,6.38
2023-04-14T13:26:24.121Z,5.75
2023-04-14T13:27:27.235Z,7.05
2023-04-14T13:28:29.209Z,6.78
2023-04-14T13:29:32.303Z,6.19
2023-04-14T13:30:34.279Z,6.99
2023-04-14T13:31:36.253Z,6.65
2023-04-14T13:32:38.308Z,6.52
2023-04-14T13:33:40.249Z,7.07
2023-04-14T13:34:42.537Z,6.47
2023-04-14T13:35:44.732Z,6.35
2023-04-14T13:36:46.807Z,6.70
2023-04-14T13:37:48.770Z,6.78
2023-04-14T13:38:51.002Z,7.19
2023-04-14T13:39:52.998Z,6.41
2023-04-14T13:40:55.190Z,6.14
2023-04-14T13:41:57.156Z,6.32
2023-04-14T13:42:59.117Z,6.43
2023-04-14T13:44:02.283Z,6.08
2023-04-14T13:45:05.530Z,5.87
2023-04-14T13:46:08.943Z,6.54
2023-04-14T13:47:11.031Z,7.08
2023-04-14T13:48:15.140Z,6.59
2023-04-14T13:49:17.139Z,6.49
2023-04-14T13:50:20.465Z,7.10
2023-04-14T13:51:22.492Z,5.89
2023-04-14T13:52:24.402Z,6.07
2023-04-14T13:53:26.392Z,6.70
2023-04-14T13:54:28.442Z,6.07
2023-04-14T13:55:30.675Z,6.58
2023-04-14T13:56:32.657Z,6.10
2023-04-14T13:57:35.036Z,6.17
2023-04-14T13:58:36.971Z,5.77
2023-04-14T13:59:38.976Z,6.37
2023-04-14T14:00:41.253Z,7.01
2023-04-14T14:01:43.245Z,6.41
2023-04-14T14:02:45.449Z,5.93
2023-04-14T14:03:47.817Z,6.71
2023-04-14T14:04:50.024Z,6.21
2023-04-14T14:05:52.016Z,6.22
2023-04-14T14:06:54.082Z,6.52
2023-04-14T14:07:56.422Z,6.49
2023-04-14T14:09:05.576Z,5.51
2023-04-14T14:10:08.139Z,6.06
2023-04-14T14:11:10.902Z,5.74